Meteo Giornale » Osservazioni meteo Emirati Arabi Uniti » Al Ain
ore: 10:30 - Osservazioni Meteo Al Ain
Lat. 24° 16' N Lon. 55° 36' E Alt. 265 metri s.l.m.
39 °C
Sereno
Temp. 24 Ore
30 °C
44 °C
Sud/Sud-Est
22.2 Km/h
Dew point 12 °C
Umidità 20 %
Visibilità 10 Km
Il sole sorge alle ore 05:58
Il sole tramonta alle ore 18:36
| Data e Ora | Cielo e Fenomeni | T °C | DP °C | Um. % | Pres. hPa | Vis. km | Vento km/h | |
|---|---|---|---|---|---|---|---|---|
| Oggi h: 10:30 | Sereno | 39 | 12 | 20 | 1004 | 10 | S/SE 22.2 | |
| Oggi h: 10:00 | Sereno | 39 | 12 | 20 | 1003 | 10 | S/SE 27.8 | |
| Oggi h: 09:30 | Sereno | 38 | 12 | 21 | 1003 | 10 | S 24 | |
| Oggi h: 09:00 | Sereno | 36 | 13 | 25 | 1003 | 8 | S 20.3 | |
| Oggi h: 08:30 | Sereno | 35 | 14 | 28 | 1004 | 8 | S/SE 20.3 | |
| Oggi h: 08:00 | Sereno | 33 | 16 | 36 | 1003 | 8 | S/SE 14.8 | |
| Oggi h: 07:30 | Sereno | 31 | 18 | 45 | 1003 | 7 | SE 13 | |
| Oggi h: 07:00 | Sereno | 31 | 19 | 48 | 1003 | 7 | S/SE 13 | |
| Oggi h: 06:30 | Sereno | 30 | 20 | 55 | 1002 | 6 | SE 13 | |
| Oggi h: 06:05 | Sereno | 31 | 20 | 52 | 1002 | 8 | SE 18.5 | |
| Oggi h: 06:00 | Sereno | 31 | 21 | 55 | 1002 | 8 | E/NE 7.4 | |
| Oggi h: 05:30 | Sereno | 30 | 21 | 58 | 1002 | 8 | N/NE 9.3 | |
| Oggi h: 05:00 | Sereno | 30 | 21 | 58 | 1002 | 8 | NE 11.1 | |
| Oggi h: 04:30 | Sereno | 30 | 20 | 55 | 1002 | 10 | N 11.1 | |
| Oggi h: 04:00 | Sereno | 31 | 20 | 52 | 1002 | 10 | N/NE 11.1 | |
| Oggi h: 03:30 | Sereno | 31 | 20 | 52 | 1001 | 10 | NE 11.1 | |
| Oggi h: 03:00 | Sereno | 31 | 20 | 52 | 1001 | 10 | N/NE 13 | |
| Oggi h: 02:30 | Sereno | 31 | 20 | 52 | 1002 | 10 | N/NE 11.1 | |
| Oggi h: 02:00 | Sereno | 31 | 19 | 48 | 1002 | 10 | NE 11.1 | |
| Oggi h: 01:30 | Sereno | 32 | 19 | 46 | 1002 | 10 | N/NE 9.3 | |
| Oggi h: 01:00 | Sereno | 32 | 20 | 49 | 1002 | 10 | N/NE 11.1 | |
| Oggi h: 00:30 | Sereno | 32 | 19 | 46 | 1002 | 10 | N/NE 11.1 | |
| Oggi h: 00:00 | Sereno | 33 | 20 | 46 | 1002 | 10 | N 13 | |
| Ieri h: 23:30 | Sereno | 34 | 18 | 38 | 1002 | 10 | N 9.3 | |
| Ieri h: 23:00 | Sereno | 34 | 17 | 36 | 1002 | 10 | N 11.1 | |
| Ieri h: 22:30 | Sereno | 35 | 18 | 36 | 1002 | 10 | N/NO 11.1 | |
| Ieri h: 22:00 | Sereno | 36 | 18 | 34 | 1002 | 10 | NO 7.4 | |
| Ieri h: 21:30 | Sereno | 36 | 17 | 32 | 1002 | 10 | N 5.5 | |
| Ieri h: 21:00 | Sereno | 37 | 17 | 30 | 1002 | 10 | N 5.5 | |
| Ieri h: 20:30 | Sereno | 37 | 18 | 32 | 1002 | 10 | N/NO 9.3 | |
| Ieri h: 20:00 | Sereno | 38 | 18 | 31 | 1002 | 10 | N/NO 16.7 | |
| Ieri h: 19:30 | Sereno | 39 | 18 | 29 | 1001 | 10 | N/NO 18.5 | |
| Ieri h: 19:00 | Sereno | 40 | 17 | 26 | 1001 | 10 | N/NO 22.2 | |
| Ieri h: 18:30 | Sereno | 42 | 12 | 17 | 1001 | 10 | NO 22.2 | |
| Ieri h: 18:00 | Sereno | 43 | 11 | 15 | 1001 | 10 | NO 25.9 | |
| Ieri h: 17:30 | Sereno | 44 | 7 | 11 | 1001 | 10 | NO 18.5 | |
| Ieri h: 17:00 | Sereno | 44 | 8 | 11 | 1001 | 10 | O 20.3 | |
| Ieri h: 16:30 | Sereno | 44 | 8 | 11 | 1001 | 10 | NO 22.2 | |
| Ieri h: 16:00 | Sereno | 44 | 8 | 11 | 1001 | 10 | NO 27.8 | |
| Ieri h: 15:30 | Sereno | 44 | 9 | 12 | 1001 | 10 | O/NO 9.3 | |
| Ieri h: 15:00 | Sereno | 44 | 10 | 13 | 1002 | 10 | NO 11.1 | |
| Ieri h: 14:30 | Sereno | 44 | 11 | 14 | 1002 | 10 | O 16.7 | |
| Ieri h: 14:00 | Sereno | 43 | 12 | 16 | 1003 | 10 | O/SO 9.3 | |
| Ieri h: 13:30 | Sereno | 43 | 12 | 16 | 1003 | 10 | O/SO 18.5 | |
| Ieri h: 13:00 | Sereno | 43 | 13 | 17 | 1003 | 10 | SO 14.8 | |
| Ieri h: 12:30 | Sereno | 42 | 13 | 18 | 1004 | 10 | S/SO 16.7 | |
| Ieri h: 12:00 | Sereno | 41 | 14 | 20 | 1004 | 10 | S 16.7 | |



